KMSY/MSY METAR and TAF weather

Enter ICAO airport designator
Station Type Date Time Source
KMSY METAR 2022/06/28 15:53 UTC NOAA

KMSY 281553Z 05006KT 10SM FEW025 FEW150 BKN250 30/23 A3007 RMK AO2 SLP185 T03000228


Station Type Date Time Source
KMSY Decoded METAR 2022/06/28 15:53 UTC NOAA

NEW ORLEANS INTERNATIONAL AIRPORT, LA, United States (KMSY) 30-00N 90-15W 5M
Jun 28, 2022 - 11:53 AM EDT / 2022.06.28 1553 UTC
Wind: from the NE (050 degrees) at 7 MPH (6 KT):0
Visibility: 10 mile(s):0
Sky conditions: mostly cloudy
Temperature: 86.0 F (30.0 C)
Heat index: 93.0 F (33.9 C):1
Dew Point: 73.0 F (22.8 C)
Relative Humidity: 65%
Pressure (altimeter): 30.07 in. Hg (1018 hPa)
ob: KMSY 281553Z 05006KT 10SM FEW025 FEW150 BKN250 30/23 A3007 RMK AO2 SLP185 T03000228
cycle: 16

Station Type Date Time Source
KMSY TAF 2022/06/28 12:30 UTC NOAA

TAF KMSY 281129Z 2812/2918 04006KT P6SM SCT020 BKN120
FM281900 04007KT P6SM VCTS SCT035CB BKN090
FM290200 VRB04KT P6SM SCT030 BKN110

Example: see airport list